Olney, United Kingdom
Current Conditions -  °F | °C
As of 1:20 PM on Sunday 23 Nov 2014 (Local Time) from EGTC Reporting Station
Light Rain Light Rain  
Wind Chill: 41°   Ceiling: 4800
Heat Index: 45°   Visibility: 6mi
Dew Point: 45°   Wind: 6mph
Humidity: 100%   Direction: 340°NNW
Pressure: 30"   Gusts: NA
Location:  52.15°N, 0.7°W
Report Text: EGTC 231320Z 34005KT 9999 -RA FEW009 BKN048 07/07 Q1016
Loading
Personal Weather Stations






























Interactive Weather Map New forecast layout! Learn more

10-Day Weather Forecast

Advertisements
Track Severe Weather on mobile